createdAt,value
2018-04-27T00:01:53.823Z,5.47
2018-04-27T00:04:22.954Z,5.49
2018-04-27T00:06:51.309Z,5.41
2018-04-27T00:09:19.678Z,5.44
2018-04-27T00:11:48.045Z,5.46
2018-04-27T00:14:16.408Z,5.64
2018-04-27T00:16:44.800Z,5.56
2018-04-27T00:19:13.159Z,5.45
2018-04-27T00:21:41.539Z,5.35
2018-04-27T00:24:09.928Z,5.19
2018-04-27T00:26:38.364Z,5.12
2018-04-27T00:29:06.749Z,5.13
2018-04-27T00:31:35.122Z,5.07
2018-04-27T00:34:03.546Z,5.13
2018-04-27T00:36:31.908Z,5.11
2018-04-27T00:39:01.056Z,5.23
2018-04-27T00:41:29.429Z,5.24
2018-04-27T00:43:57.811Z,5.21
2018-04-27T00:46:26.186Z,5.18
2018-04-27T00:48:54.572Z,5.20
2018-04-27T00:51:22.952Z,5.25
2018-04-27T00:53:51.309Z,5.30
2018-04-27T00:56:20.462Z,5.20
2018-04-27T00:58:48.826Z,5.19
2018-04-27T01:01:17.201Z,5.09
2018-04-27T01:03:45.585Z,5.03
2018-04-27T01:06:14.055Z,4.97
2018-04-27T01:08:42.422Z,4.91
2018-04-27T01:11:11.548Z,4.89
2018-04-27T01:13:39.933Z,4.85
2018-04-27T01:16:08.314Z,4.84
2018-04-27T01:18:36.691Z,4.83
2018-04-27T01:21:05.055Z,4.84
2018-04-27T01:23:34.203Z,4.85
2018-04-27T01:26:02.562Z,4.99
2018-04-27T01:28:30.949Z,5.07
2018-04-27T01:30:59.341Z,5.00
2018-04-27T01:33:27.986Z,4.89
2018-04-27T01:35:57.142Z,4.79
2018-04-27T01:38:25.507Z,4.83
2018-04-27T01:40:53.898Z,4.81
2018-04-27T01:43:22.274Z,4.82
2018-04-27T01:45:50.698Z,4.75
2018-04-27T01:48:19.076Z,4.80
2018-04-27T01:50:47.444Z,4.63
2018-04-27T01:53:15.839Z,4.53
2018-04-27T01:55:44.224Z,4.48
2018-04-27T01:58:12.613Z,4.42
2018-04-27T02:00:41.015Z,4.40
2018-04-27T02:03:10.153Z,4.32
2018-04-27T02:05:38.529Z,4.37
2018-04-27T02:08:06.969Z,4.35
2018-04-27T02:10:35.393Z,4.42
2018-04-27T02:13:03.778Z,4.65
2018-04-27T02:15:32.157Z,4.80
2018-04-27T02:18:00.518Z,4.82
2018-04-27T02:20:29.655Z,4.75
2018-04-27T02:22:58.045Z,4.72
2018-04-27T02:25:26.410Z,4.76
2018-04-27T02:27:54.785Z,4.74
2018-04-27T02:30:23.151Z,4.71
2018-04-27T02:32:52.427Z,4.92
2018-04-27T02:35:20.800Z,4.87
2018-04-27T02:37:49.222Z,4.86
2018-04-27T02:40:18.354Z,4.99
2018-04-27T02:42:46.825Z,5.01
2018-04-27T02:45:15.264Z,5.11
2018-04-27T02:47:43.645Z,5.16
2018-04-27T02:50:12.053Z,5.24
2018-04-27T02:52:41.216Z,5.24
2018-04-27T02:55:09.592Z,5.29
2018-04-27T02:57:37.963Z,5.34
2018-04-27T03:00:06.330Z,5.37
2018-04-27T03:02:34.693Z,5.44
2018-04-27T03:05:03.066Z,5.45
2018-04-27T03:07:32.197Z,5.44
2018-04-27T03:10:00.587Z,5.54
2018-04-27T03:12:28.959Z,5.59
2018-04-27T03:14:57.331Z,5.63
2018-04-27T03:17:25.725Z,5.65
2018-04-27T03:19:54.142Z,5.62
2018-04-27T03:22:22.515Z,5.60
2018-04-27T03:24:50.880Z,5.59
2018-04-27T03:27:19.257Z,5.55
2018-04-27T03:29:47.685Z,5.51
2018-04-27T03:32:16.073Z,5.47
2018-04-27T03:34:44.517Z,5.47
2018-04-27T03:37:12.914Z,5.52
2018-04-27T03:39:42.044Z,5.64
2018-04-27T03:42:10.403Z,5.63
2018-04-27T03:44:39.531Z,5.61
2018-04-27T03:47:07.902Z,5.61
2018-04-27T03:49:36.300Z,5.61
2018-04-27T03:52:05.436Z,5.53
2018-04-27T03:54:33.826Z,5.52
2018-04-27T03:57:02.214Z,5.55
2018-04-27T03:59:48.468Z,5.54
2018-04-27T04:02:35.139Z,5.58
2018-04-27T04:05:18.194Z,5.55
2018-04-27T04:07:46.568Z,5.57
2018-04-27T04:10:15.796Z,5.59
2018-04-27T04:12:44.165Z,5.62
2018-04-27T04:15:12.557Z,5.55
2018-04-27T04:17:41.002Z,5.54
2018-04-27T04:20:09.397Z,5.50
2018-04-27T04:22:38.560Z,5.48
2018-04-27T04:25:06.954Z,5.50
2018-04-27T04:27:35.327Z,5.58
2018-04-27T04:30:03.691Z,5.66
2018-04-27T04:32:32.057Z,5.71
2018-04-27T04:35:00.434Z,5.74
2018-04-27T04:37:28.842Z,5.75
2018-04-27T04:39:57.213Z,5.80
2018-04-27T04:42:25.586Z,5.82
2018-04-27T04:44:53.954Z,5.88
2018-04-27T04:47:22.337Z,5.92
2018-04-27T04:49:51.481Z,5.92
2018-04-27T04:52:19.900Z,5.94
2018-04-27T04:54:49.148Z,5.94
2018-04-27T04:57:17.542Z,6.03
2018-04-27T04:59:46.025Z,5.95
2018-04-27T05:02:14.393Z,5.95
2018-04-27T05:04:42.793Z,5.93
2018-04-27T05:07:11.153Z,5.97
2018-04-27T05:09:40.357Z,6.17
2018-04-27T05:12:08.736Z,6.27
2018-04-27T05:14:37.151Z,6.37
2018-04-27T05:17:05.517Z,6.50
2018-04-27T05:19:33.882Z,6.71
2018-04-27T05:22:02.370Z,6.88
2018-04-27T05:24:30.783Z,7.10
2018-04-27T05:26:59.237Z,7.29
2018-04-27T05:29:27.620Z,7.50
2018-04-27T05:31:56.020Z,7.62
2018-04-27T05:34:24.397Z,7.73
2018-04-27T05:36:53.573Z,7.89
2018-04-27T05:39:22.060Z,7.98
2018-04-27T05:41:51.190Z,8.21
2018-04-27T05:44:19.567Z,8.56
2018-04-27T05:46:47.953Z,8.67
2018-04-27T05:49:16.345Z,8.67
2018-04-27T05:51:44.701Z,8.98
2018-04-27T05:54:13.809Z,8.92
2018-04-27T05:56:42.191Z,9.02
2018-04-27T05:59:10.567Z,9.01
2018-04-27T06:01:38.933Z,9.19
2018-04-27T06:04:14.765Z,9.21
2018-04-27T06:06:43.921Z,9.12
2018-04-27T06:09:12.278Z,9.24
2018-04-27T06:11:40.650Z,9.33
2018-04-27T06:14:09.034Z,9.75
2018-04-27T06:16:37.424Z,9.93
2018-04-27T06:19:05.831Z,10.13
2018-04-27T06:21:34.209Z,10.15
2018-04-27T06:24:02.590Z,10.25
2018-04-27T06:26:30.973Z,10.22
2018-04-27T06:28:59.393Z,10.54
2018-04-27T06:31:27.880Z,10.90
2018-04-27T06:33:56.338Z,11.05
2018-04-27T06:36:24.711Z,11.72
2018-04-27T06:38:53.094Z,11.62
2018-04-27T06:41:21.517Z,11.86
2018-04-27T06:43:49.914Z,12.04
2018-04-27T06:46:18.290Z,12.52
2018-04-27T06:48:46.702Z,12.44
2018-04-27T06:51:17.861Z,12.77
2018-04-27T06:53:46.278Z,12.93
2018-04-27T06:56:14.638Z,12.66
2018-04-27T06:58:43.022Z,13.32
2018-04-27T07:01:11.430Z,13.16
2018-04-27T07:03:40.724Z,13.32
2018-04-27T07:06:09.120Z,13.33
2018-04-27T07:08:37.480Z,13.87
2018-04-27T07:11:05.886Z,14.24
2018-04-27T07:13:34.265Z,14.26
2018-04-27T07:16:03.848Z,14.06
2018-04-27T07:18:32.234Z,14.25
2018-04-27T07:21:00.618Z,14.33
2018-04-27T07:23:28.989Z,14.35
2018-04-27T07:25:57.444Z,14.69
2018-04-27T07:28:25.849Z,14.42
2018-04-27T07:30:54.219Z,14.64
2018-04-27T07:33:23.419Z,14.42
2018-04-27T07:35:52.570Z,14.55
2018-04-27T07:38:21.025Z,14.22
2018-04-27T07:40:49.391Z,14.88
2018-04-27T07:43:18.521Z,14.65
2018-04-27T07:45:46.878Z,15.75
2018-04-27T07:48:16.049Z,15.48
2018-04-27T07:50:44.509Z,15.59
2018-04-27T07:53:12.961Z,16.00
2018-04-27T07:55:41.338Z,17.05
2018-04-27T07:58:09.700Z,17.40
2018-04-27T08:00:38.864Z,17.38
2018-04-27T08:03:07.990Z,18.18
2018-04-27T08:05:36.354Z,17.90
2018-04-27T08:08:04.709Z,17.85
2018-04-27T08:10:33.068Z,16.93
2018-04-27T08:13:01.418Z,16.68
2018-04-27T08:15:29.789Z,17.09
2018-04-27T08:17:58.950Z,17.30
2018-04-27T08:20:28.905Z,17.08
2018-04-27T08:22:58.983Z,16.87
2018-04-27T08:25:29.980Z,17.08
2018-04-27T08:27:58.344Z,17.20
2018-04-27T08:30:26.716Z,16.94
2018-04-27T08:32:55.861Z,17.03
2018-04-27T08:35:25.002Z,17.28
2018-04-27T08:37:53.405Z,17.28
2018-04-27T08:40:21.780Z,17.65
2018-04-27T08:42:50.171Z,17.74
2018-04-27T08:45:18.574Z,17.77
2018-04-27T08:47:47.063Z,18.17
2018-04-27T08:50:15.507Z,18.29
2018-04-27T08:52:43.805Z,19.43
2018-04-27T08:55:12.205Z,20.60
2018-04-27T08:57:40.642Z,19.79
2018-04-27T09:00:09.023Z,19.33
2018-04-27T09:02:37.401Z,20.28
2018-04-27T09:05:05.765Z,20.36
2018-04-27T09:07:34.926Z,20.49
2018-04-27T09:10:03.338Z,21.06
2018-04-27T09:12:31.862Z,20.50
2018-04-27T09:15:00.254Z,20.78
2018-04-27T09:17:28.623Z,20.55
2018-04-27T09:19:57.032Z,21.04
2018-04-27T09:22:25.435Z,20.95
2018-04-27T09:24:53.820Z,20.81
2018-04-27T09:27:22.259Z,20.81
2018-04-27T09:29:50.634Z,20.69
2018-04-27T09:32:19.048Z,20.60
2018-04-27T09:34:47.468Z,19.59
2018-04-27T09:37:15.875Z,20.25
2018-04-27T09:39:45.041Z,20.94
2018-04-27T09:42:13.502Z,21.20
2018-04-27T09:44:41.891Z,21.93
2018-04-27T09:47:10.302Z,21.76
2018-04-27T09:49:39.453Z,21.74
2018-04-27T09:52:07.833Z,21.18
2018-04-27T09:54:36.234Z,21.81
2018-04-27T09:57:04.628Z,21.39
2018-04-27T09:59:33.002Z,21.58
2018-04-27T10:02:01.391Z,22.05
2018-04-27T10:04:29.752Z,21.72
2018-04-27T10:06:58.156Z,21.89
2018-04-27T10:09:26.532Z,22.19
2018-04-27T10:11:54.934Z,22.74
2018-04-27T10:14:24.133Z,22.69
2018-04-27T10:16:53.289Z,23.03
2018-04-27T10:19:21.693Z,23.09
2018-04-27T10:21:50.071Z,23.36
2018-04-27T10:24:18.473Z,23.10
2018-04-27T10:26:46.832Z,22.38
2018-04-27T10:29:15.265Z,21.36
2018-04-27T10:31:43.658Z,22.14
2018-04-27T10:34:12.042Z,20.81
2018-04-27T10:36:40.417Z,21.28
2018-04-27T10:39:08.805Z,21.79
2018-04-27T10:41:37.205Z,22.06
2018-04-27T10:44:06.345Z,21.12
2018-04-27T10:46:34.707Z,21.26
2018-04-27T10:49:03.073Z,20.24
2018-04-27T10:51:32.190Z,20.74
2018-04-27T10:54:00.571Z,21.49
2018-04-27T10:56:28.977Z,21.12
2018-04-27T10:58:57.354Z,21.40
2018-04-27T11:01:25.769Z,20.78
2018-04-27T11:03:54.115Z,20.79
2018-04-27T11:06:22.480Z,21.39
2018-04-27T11:08:50.845Z,21.51
2018-04-27T11:11:19.992Z,21.53
2018-04-27T11:13:48.426Z,21.17
2018-04-27T11:16:18.087Z,21.09
2018-04-27T11:18:46.317Z,21.71
2018-04-27T11:21:14.691Z,22.02
2018-04-27T11:23:43.073Z,20.90
2018-04-27T11:26:11.431Z,20.67
2018-04-27T11:28:39.963Z,21.32
2018-04-27T11:31:08.535Z,21.71
2018-04-27T11:33:36.918Z,21.73
2018-04-27T11:36:05.306Z,21.34
2018-04-27T11:38:33.688Z,21.28
2018-04-27T11:41:02.065Z,22.09
2018-04-27T11:43:30.478Z,22.63
2018-04-27T11:45:58.835Z,22.67
2018-04-27T11:48:27.973Z,22.87
2018-04-27T11:50:56.371Z,22.13
2018-04-27T11:53:24.769Z,21.16
2018-04-27T11:55:53.167Z,22.28
2018-04-27T11:58:23.275Z,23.20
2018-04-27T12:00:52.572Z,22.99
2018-04-27T12:03:20.975Z,23.10
2018-04-27T12:05:49.601Z,23.97
2018-04-27T12:08:18.000Z,23.62
2018-04-27T12:10:46.386Z,23.63
2018-04-27T12:13:15.533Z,22.84
2018-04-27T12:15:43.926Z,23.49
2018-04-27T12:18:12.354Z,23.55
2018-04-27T12:20:40.751Z,23.98
2018-04-27T12:23:09.143Z,23.99
2018-04-27T12:25:37.531Z,22.23
2018-04-27T12:28:06.059Z,22.66
2018-04-27T12:30:34.459Z,22.91
2018-04-27T12:33:03.617Z,22.56
2018-04-27T12:35:32.018Z,22.42
2018-04-27T12:38:00.392Z,22.54
2018-04-27T12:40:28.750Z,21.80
2018-04-27T12:42:57.114Z,22.49
2018-04-27T12:45:25.501Z,22.18
2018-04-27T12:47:53.989Z,21.76
2018-04-27T12:50:22.399Z,21.95
2018-04-27T12:52:50.773Z,22.00
2018-04-27T12:55:19.225Z,22.12
2018-04-27T12:57:47.619Z,22.42
2018-04-27T13:00:16.017Z,22.54
2018-04-27T13:02:44.386Z,22.77
2018-04-27T13:05:12.845Z,23.43
2018-04-27T13:07:41.218Z,23.63
2018-04-27T13:10:10.383Z,23.68
2018-04-27T13:12:38.741Z,23.95
2018-04-27T13:15:07.107Z,22.97
2018-04-27T13:17:35.498Z,23.42
2018-04-27T13:20:03.882Z,23.59
2018-04-27T13:22:32.354Z,23.45
2018-04-27T13:25:00.750Z,23.85
2018-04-27T13:27:29.977Z,24.01
2018-04-27T13:29:58.340Z,24.14
2018-04-27T13:32:26.710Z,23.23
2018-04-27T13:34:55.534Z,24.29
2018-04-27T13:37:23.901Z,23.90
2018-04-27T13:39:52.305Z,24.80
2018-04-27T13:42:20.732Z,24.99
2018-04-27T13:44:49.899Z,25.14
2018-04-27T13:47:18.300Z,24.45
2018-04-27T13:49:46.725Z,24.35
2018-04-27T13:52:15.114Z,23.56
2018-04-27T13:54:43.515Z,23.61
2018-04-27T13:57:11.979Z,24.70
2018-04-27T13:59:40.392Z,25.26
2018-04-27T14:02:08.750Z,24.75
2018-04-27T14:04:37.157Z,24.62
2018-04-27T14:07:06.341Z,24.51
2018-04-27T14:09:34.773Z,24.84
2018-04-27T14:12:03.185Z,24.70
2018-04-27T14:14:31.575Z,25.28
2018-04-27T14:17:00.008Z,25.52
2018-04-27T14:19:28.383Z,25.53
2018-04-27T14:21:56.789Z,26.53
2018-04-27T14:24:25.227Z,25.83
2018-04-27T14:26:54.394Z,26.20
2018-04-27T14:29:22.765Z,26.50
2018-04-27T14:31:51.178Z,25.84
2018-04-27T14:34:19.815Z,24.83
2018-04-27T14:36:48.225Z,25.64
2018-04-27T14:39:17.440Z,26.53
2018-04-27T14:41:46.605Z,24.59
2018-04-27T14:44:14.988Z,24.90
2018-04-27T14:46:43.357Z,24.88
2018-04-27T14:49:11.758Z,25.99
2018-04-27T14:51:40.143Z,25.98
2018-04-27T14:54:08.538Z,25.62
2018-04-27T14:56:36.929Z,26.01
2018-04-27T14:59:06.103Z,25.28
2018-04-27T15:01:34.515Z,25.50
2018-04-27T15:04:03.687Z,25.63
2018-04-27T15:06:32.081Z,25.86
2018-04-27T15:09:01.537Z,26.25
2018-04-27T15:11:29.917Z,25.85
2018-04-27T15:13:58.283Z,25.61
2018-04-27T15:16:27.457Z,25.75
2018-04-27T15:18:55.878Z,26.33
2018-04-27T15:21:24.270Z,26.91
2018-04-27T15:23:52.649Z,26.66
2018-04-27T15:26:21.065Z,25.83
2018-04-27T15:28:49.454Z,25.50
2018-04-27T15:31:17.879Z,24.25
2018-04-27T15:33:47.109Z,23.98
2018-04-27T15:36:15.398Z,23.04
2018-04-27T15:38:43.763Z,23.56
2018-04-27T15:41:12.140Z,23.21
2018-04-27T15:43:40.508Z,23.13
2018-04-27T15:46:09.656Z,23.05
2018-04-27T15:48:38.084Z,23.39
2018-04-27T15:51:06.622Z,23.30
2018-04-27T15:53:34.999Z,23.34
2018-04-27T15:56:03.440Z,23.37
2018-04-27T15:58:32.593Z,22.71
2018-04-27T16:01:00.981Z,22.41
2018-04-27T16:03:29.341Z,22.37
2018-04-27T16:05:57.721Z,22.57
2018-04-27T16:08:26.270Z,22.93
2018-04-27T16:10:54.673Z,22.66
2018-04-27T16:16:19.174Z,23.41
2018-04-27T16:18:48.302Z,24.29
2018-04-27T16:21:16.737Z,23.91
2018-04-27T16:23:46.969Z,23.95
2018-04-27T16:26:17.826Z,24.52
2018-04-27T16:28:46.992Z,23.48
2018-04-27T16:31:16.113Z,23.61
2018-04-27T16:33:45.287Z,22.63
2018-04-27T16:36:13.702Z,21.96
2018-04-27T16:38:42.830Z,21.69
2018-04-27T16:41:11.243Z,21.46
2018-04-27T16:43:39.656Z,20.99
2018-04-27T16:46:08.087Z,20.82
2018-04-27T16:48:36.444Z,20.33
2018-04-27T16:51:04.821Z,20.24
2018-04-27T16:53:34.008Z,20.01
2018-04-27T16:56:02.467Z,19.83
2018-04-27T16:58:31.605Z,19.96
2018-04-27T17:01:00.767Z,20.03
2018-04-27T17:03:29.146Z,19.88
2018-04-27T17:05:58.310Z,19.89
2018-04-27T17:08:26.723Z,19.86
2018-04-27T17:10:55.873Z,19.70
2018-04-27T17:13:25.011Z,19.63
2018-04-27T17:15:53.385Z,19.48
2018-04-27T17:18:21.766Z,19.50
2018-04-27T17:20:50.185Z,19.57
2018-04-27T17:23:18.592Z,19.62
2018-04-27T17:25:46.983Z,19.66
2018-04-27T17:28:15.355Z,19.75
2018-04-27T17:30:43.768Z,20.00
2018-04-27T17:33:13.625Z,20.13
2018-04-27T17:35:42.050Z,20.20
2018-04-27T17:38:11.232Z,20.24
2018-04-27T17:40:39.630Z,20.30
2018-04-27T17:43:08.014Z,20.36
2018-04-27T17:45:36.466Z,20.41
2018-04-27T17:48:04.924Z,20.37
2018-04-27T17:50:33.286Z,20.48
2018-04-27T17:53:02.569Z,20.39
2018-04-27T17:55:30.942Z,20.39
2018-04-27T17:57:59.336Z,20.20
2018-04-27T18:00:27.762Z,19.95
2018-04-27T18:02:56.277Z,19.92
2018-04-27T18:05:24.677Z,19.94
2018-04-27T18:07:53.057Z,19.74
2018-04-27T18:10:21.436Z,19.78
2018-04-27T18:12:49.816Z,19.72
2018-04-27T18:15:18.234Z,19.68
2018-04-27T18:17:47.444Z,19.28
2018-04-27T18:20:16.642Z,19.21
2018-04-27T18:22:45.786Z,18.98
2018-04-27T18:25:14.156Z,18.93
2018-04-27T18:27:42.562Z,18.69
2018-04-27T18:30:10.900Z,18.39
2018-04-27T18:32:39.389Z,18.43
2018-04-27T18:35:07.778Z,18.28
2018-04-27T18:37:36.187Z,18.12
2018-04-27T18:40:04.853Z,18.17
2018-04-27T18:42:33.338Z,18.16
2018-04-27T18:45:01.663Z,18.06
2018-04-27T18:47:30.818Z,18.06
2018-04-27T18:49:59.199Z,18.08
2018-04-27T18:52:28.498Z,17.99
2018-04-27T18:54:57.028Z,17.95
2018-04-27T18:57:25.906Z,18.00
2018-04-27T18:59:54.305Z,17.97
2018-04-27T19:02:22.696Z,18.10
2018-04-27T19:04:51.099Z,17.98
2018-04-27T19:07:20.265Z,17.86
2018-04-27T19:09:48.689Z,17.83
2018-04-27T19:12:17.069Z,17.81
2018-04-27T19:14:46.245Z,17.72
2018-04-27T19:17:14.627Z,17.61
2018-04-27T19:19:43.894Z,17.47
2018-04-27T19:22:13.222Z,17.53
2018-04-27T19:24:44.364Z,17.44
2018-04-27T19:27:12.749Z,17.39
2018-04-27T19:29:41.138Z,17.54
2018-04-27T19:32:09.517Z,17.45
2018-04-27T19:34:37.943Z,17.38
2018-04-27T19:37:07.188Z,17.43
2018-04-27T19:39:35.641Z,17.36
2018-04-27T19:42:04.809Z,17.34
2018-04-27T19:44:33.982Z,17.45
2018-04-27T19:47:02.413Z,17.42
2018-04-27T19:49:31.141Z,17.49
2018-04-27T19:51:59.549Z,17.50
2018-04-27T19:54:27.955Z,17.55
2018-04-27T19:56:59.085Z,17.57
2018-04-27T19:59:27.499Z,17.55
2018-04-27T20:01:55.971Z,17.66
2018-04-27T20:04:24.568Z,17.61
2018-04-27T20:06:52.952Z,17.56
2018-04-27T20:09:21.365Z,17.56
2018-04-27T20:11:50.650Z,17.49
2018-04-27T20:14:43.757Z,17.30
2018-04-27T20:17:12.901Z,17.24
2018-04-27T20:19:42.194Z,17.21
2018-04-27T20:22:21.708Z,17.08
2018-04-27T20:24:50.069Z,17.08
2018-04-27T20:27:19.333Z,16.99
2018-04-27T20:29:48.764Z,16.89
2018-04-27T20:32:17.202Z,16.89
2018-04-27T20:34:45.607Z,16.83
2018-04-27T20:37:14.900Z,16.70
2018-04-27T20:39:43.227Z,16.46
2018-04-27T20:42:11.649Z,16.17
2018-04-27T20:44:40.038Z,15.96
2018-04-27T20:47:09.351Z,15.91
2018-04-27T20:49:37.768Z,16.09
2018-04-27T20:52:06.153Z,16.11
2018-04-27T20:54:36.115Z,15.97
2018-04-27T20:57:05.299Z,15.79
2018-04-27T20:59:33.694Z,15.59
2018-04-27T21:02:02.254Z,15.49
2018-04-27T21:04:30.628Z,15.48
2018-04-27T21:07:00.757Z,15.56
2018-04-27T21:09:29.146Z,15.64
2018-04-27T21:11:57.525Z,15.62
2018-04-27T21:14:26.259Z,15.78
2018-04-27T21:16:54.637Z,16.02
2018-04-27T21:19:22.999Z,16.06
2018-04-27T21:21:51.367Z,16.17
2018-04-27T21:24:19.769Z,16.23
2018-04-27T21:26:48.162Z,16.17
2018-04-27T21:29:19.163Z,16.21
2018-04-27T21:31:47.546Z,16.17
2018-04-27T21:34:15.933Z,16.19
2018-04-27T21:36:50.707Z,16.19
2018-04-27T21:39:33.433Z,16.17
2018-04-27T21:42:13.143Z,16.22
2018-04-27T21:44:43.388Z,16.22
2018-04-27T21:50:18.915Z,16.21
2018-04-27T21:52:50.418Z,16.13
2018-04-27T21:55:19.596Z,16.16
2018-04-27T21:57:51.358Z,16.04
2018-04-27T22:00:23.593Z,15.95
2018-04-27T22:06:01.185Z,15.70
2018-04-27T22:08:53.802Z,15.68
2018-04-27T22:11:31.375Z,15.72
2018-04-27T22:13:59.766Z,15.58
2018-04-27T22:16:41.551Z,15.63
2018-04-27T22:19:14.660Z,15.61
2018-04-27T22:21:43.052Z,15.43
2018-04-27T22:24:12.856Z,15.28
2018-04-27T22:26:41.830Z,15.12
2018-04-27T22:29:37.362Z,15.04
2018-04-27T22:32:06.487Z,14.93
2018-04-27T22:34:45.714Z,14.92
2018-04-27T22:37:14.128Z,14.80
2018-04-27T22:40:12.822Z,14.93
2018-04-27T22:42:45.509Z,14.92
2018-04-27T22:45:18.125Z,14.92
2018-04-27T22:51:23.395Z,14.99
2018-04-27T22:53:53.274Z,14.90
2018-04-27T22:56:54.014Z,14.91
2018-04-27T22:59:33.099Z,14.76
2018-04-27T23:05:03.244Z,14.92
2018-04-27T23:10:29.626Z,14.86
2018-04-27T23:13:07.872Z,14.80
2018-04-27T23:15:45.792Z,14.83
2018-04-27T23:18:15.709Z,14.92
2018-04-27T23:20:47.844Z,14.92
2018-04-27T23:23:16.357Z,14.86
2018-04-27T23:25:48.457Z,14.78
2018-04-27T23:28:17.534Z,14.80
2018-04-27T23:30:48.679Z,14.82
2018-04-27T23:33:17.054Z,14.81
2018-04-27T23:35:53.901Z,14.82
2018-04-27T23:38:23.704Z,14.81
2018-04-27T23:40:57.289Z,14.74
2018-04-27T23:43:26.449Z,14.71
2018-04-27T23:45:54.838Z,14.83
2018-04-27T23:48:23.207Z,14.78
2018-04-27T23:50:54.349Z,14.76
2018-04-27T23:53:22.880Z,14.86
2018-04-27T23:55:51.269Z,14.92
2018-04-27T23:58:24.010Z,14.92
